Mapleton, Utah
Current Conditions -  °F | °C
As of 11:48 AM on Friday 21 Nov 2014 (Local Time) from KPVU Reporting Station
Few Clouds Few Clouds  
Wind Chill: 36°   Ceiling: Unl
Heat Index: 39°   Visibility: 15mi
Dew Point: 23°   Wind: 5mph
Humidity: 52%   Direction: NA
Pressure: 30.03"   Gusts: NA
Location:  40.13°N, 111.58°W
Report Text: KPVU 211848Z VRB04KT 15SM FEW120 04/M05 A3003
Loading
Personal Weather Stations






























Interactive Weather Map New forecast layout! Learn more

10-Day Weather Forecast

Advertisements
Track Severe Weather on mobile